SHMÚ vydal meteorologické výstrahy na Vietor na horáchFog Display warnings

METAR

Aeronautical MET Report METAR

METAR description (Slovak)

20.01.2020 - 20:00 UTC

METAR LZIB 202000Z 19002KT CAVOK M01/M02 Q1046=
METAR LZKZ 202000Z 02004KT 9999 BKN030 01/M03 Q1045=
METAR LZPP 202000Z 36003KT 7000 NSC M03/M04 Q1046=
METAR LZSL 202000Z 11001KT CAVOK M04/M06 Q1045=
METAR LZTT 202000Z 26004KT 9999 FEW010 M05/M06 Q1042=
METAR LZZI 202000Z VRB01KT 6000 NSC M03/M03 Q1045=

20.01.2020 - 19:30 UTC

METAR LZIB 201930Z 19002KT CAVOK M00/M02 Q1046=
METAR LZKZ 201930Z 03006KT 9999 BKN030 01/M02 Q1045=
METAR LZPP 201930Z 02002KT 7000 NSC M02/M03 Q1046=
METAR LZSL 201930Z 07001KT CAVOK M03/M05 Q1044=
METAR LZTT 201930Z 26003KT 9999 MIFG FEW010 M06/M07 Q1043=
METAR LZZI 201930Z 26001KT CAVOK M02/M03 Q1045=

20.01.2020 - 20:00 UTC

METAR LZMC 202000Z 00000KT 0100 R19/0350V0550N FZFG
BKN002 M03/M04 Q1047=
METAR LZPW 202000Z VRB02KT 9999 OVC025 01/M03 Q1044=

 

 

skok na menu ↑


skok na začiatok stránky ↑